createdAt,value
2019-05-19T00:00:37.115Z,11.64
2019-05-19T00:01:37.105Z,11.61
2019-05-19T00:02:40.484Z,11.54
2019-05-19T00:03:37.075Z,11.49
2019-05-19T00:04:37.063Z,11.46
2019-05-19T00:05:37.050Z,11.42
2019-05-19T00:06:37.045Z,11.40
2019-05-19T00:07:37.026Z,11.40
2019-05-19T00:08:37.030Z,11.25
2019-05-19T00:09:36.995Z,11.25
2019-05-19T00:10:36.986Z,11.28
2019-05-19T00:11:36.971Z,11.28
2019-05-19T00:12:36.963Z,11.28
2019-05-19T00:13:36.945Z,11.28
2019-05-19T00:14:36.933Z,11.27
2019-05-19T00:15:36.926Z,11.27
2019-05-19T00:16:36.906Z,11.32
2019-05-19T00:17:36.900Z,11.32
2019-05-19T00:18:36.881Z,11.28
2019-05-19T00:19:36.866Z,11.28
2019-05-19T00:20:36.853Z,11.35
2019-05-19T00:21:36.845Z,11.27
2019-05-19T00:22:36.836Z,11.37
2019-05-19T00:23:36.818Z,11.36
2019-05-19T00:24:36.802Z,11.40
2019-05-19T00:25:36.787Z,11.47
2019-05-19T00:26:36.775Z,11.46
2019-05-19T00:27:36.760Z,11.58
2019-05-19T00:28:36.757Z,11.58
2019-05-19T00:29:36.747Z,11.62
2019-05-19T00:30:36.728Z,11.60
2019-05-19T00:31:36.716Z,11.73
2019-05-19T00:32:36.700Z,11.65
2019-05-19T00:33:36.688Z,11.62
2019-05-19T00:34:36.682Z,11.64
2019-05-19T00:35:36.662Z,11.70
2019-05-19T00:36:36.696Z,11.70
2019-05-19T00:37:36.642Z,11.70
2019-05-19T00:38:36.627Z,11.75
2019-05-19T00:39:36.608Z,11.80
2019-05-19T00:40:36.596Z,11.83
2019-05-19T00:41:36.582Z,11.80
2019-05-19T00:42:36.571Z,11.82
2019-05-19T00:43:36.550Z,11.90
2019-05-19T00:44:36.539Z,11.86
2019-05-19T00:45:36.533Z,11.94
2019-05-19T00:46:36.517Z,11.91
2019-05-19T00:47:36.506Z,11.98
2019-05-19T00:48:36.498Z,11.99
2019-05-19T00:49:41.498Z,12.01
2019-05-19T00:50:36.472Z,12.01
2019-05-19T00:51:36.450Z,11.95
2019-05-19T00:52:36.452Z,12.01
2019-05-19T00:53:36.432Z,11.98
2019-05-19T00:54:36.416Z,11.99
2019-05-19T00:55:36.402Z,11.99
2019-05-19T00:56:36.388Z,12.02
2019-05-19T00:57:36.378Z,11.94
2019-05-19T00:58:36.360Z,11.90
2019-05-19T00:59:36.353Z,11.99
2019-05-19T01:00:36.337Z,11.95
2019-05-19T01:01:36.328Z,11.91
2019-05-19T01:02:36.310Z,11.91
2019-05-19T01:03:36.299Z,11.80
2019-05-19T01:04:36.292Z,11.83
2019-05-19T01:05:36.284Z,11.75
2019-05-19T01:06:36.274Z,11.65
2019-05-19T01:07:36.253Z,11.73
2019-05-19T01:08:36.239Z,11.69
2019-05-19T01:09:36.223Z,11.78
2019-05-19T01:10:36.210Z,11.76
2019-05-19T01:11:36.198Z,11.82
2019-05-19T01:12:36.185Z,11.82
2019-05-19T01:13:36.179Z,11.85
2019-05-19T01:14:36.156Z,11.79
2019-05-19T01:15:36.156Z,11.88
2019-05-19T01:16:36.135Z,11.95
2019-05-19T01:17:36.118Z,11.90
2019-05-19T01:18:36.109Z,11.91
2019-05-19T01:19:36.093Z,11.80
2019-05-19T01:20:36.086Z,11.90
2019-05-19T01:21:36.068Z,11.95
2019-05-19T01:22:36.056Z,11.86
2019-05-19T01:23:36.044Z,11.86
2019-05-19T01:24:36.034Z,11.86
2019-05-19T01:25:36.016Z,11.90
2019-05-19T01:26:36.012Z,11.88
2019-05-19T01:27:36.006Z,11.78
2019-05-19T01:28:35.979Z,11.62
2019-05-19T01:29:35.967Z,11.57
2019-05-19T01:30:35.955Z,11.57
2019-05-19T01:31:35.947Z,11.52
2019-05-19T01:32:35.936Z,11.55
2019-05-19T01:33:35.912Z,11.44
2019-05-19T01:34:35.902Z,11.44
2019-05-19T01:35:35.887Z,11.51
2019-05-19T01:36:35.876Z,11.49
2019-05-19T01:37:35.862Z,11.58
2019-05-19T01:38:35.850Z,11.60
2019-05-19T01:39:35.843Z,11.54
2019-05-19T01:40:35.819Z,11.55
2019-05-19T01:41:35.811Z,11.58
2019-05-19T01:42:35.799Z,11.57
2019-05-19T01:43:35.785Z,11.44
2019-05-19T01:44:35.777Z,11.27
2019-05-19T01:45:35.760Z,11.27
2019-05-19T01:46:35.759Z,11.22
2019-05-19T01:47:35.757Z,11.22
2019-05-19T01:48:35.733Z,11.18
2019-05-19T01:49:35.732Z,11.19
2019-05-19T01:50:35.694Z,11.29
2019-05-19T01:51:35.682Z,11.33
2019-05-19T01:52:35.667Z,11.24
2019-05-19T01:53:35.655Z,11.28
2019-05-19T01:54:35.643Z,11.32
2019-05-19T01:55:35.625Z,11.35
2019-05-19T01:56:35.619Z,11.39
2019-05-19T01:57:35.605Z,11.40
2019-05-19T01:58:35.588Z,11.42
2019-05-19T01:59:35.576Z,11.46
2019-05-19T02:00:35.569Z,11.47
2019-05-19T02:01:35.560Z,11.52
2019-05-19T02:02:35.540Z,11.47
2019-05-19T02:03:35.525Z,11.54
2019-05-19T02:04:35.512Z,11.47
2019-05-19T02:05:35.498Z,11.49
2019-05-19T02:06:35.489Z,11.55
2019-05-19T02:07:35.483Z,11.64
2019-05-19T02:08:35.461Z,11.55
2019-05-19T02:09:35.457Z,11.60
2019-05-19T02:10:35.429Z,11.58
2019-05-19T02:11:35.576Z,11.58
2019-05-19T02:12:35.410Z,11.61
2019-05-19T02:13:35.397Z,11.69
2019-05-19T02:14:35.379Z,11.60
2019-05-19T02:15:35.370Z,11.57
2019-05-19T02:16:35.353Z,11.61
2019-05-19T02:17:35.337Z,11.69
2019-05-19T02:18:35.331Z,11.61
2019-05-19T02:19:35.313Z,11.61
2019-05-19T02:20:35.306Z,11.60
2019-05-19T02:21:35.289Z,11.57
2019-05-19T02:22:35.277Z,11.62
2019-05-19T02:23:35.261Z,11.57
2019-05-19T02:24:35.250Z,11.55
2019-05-19T02:25:35.236Z,11.61
2019-05-19T02:26:35.230Z,11.64
2019-05-19T02:27:35.219Z,11.65
2019-05-19T02:28:35.202Z,11.52
2019-05-19T02:29:35.186Z,11.52
2019-05-19T02:30:35.177Z,11.51
2019-05-19T02:31:35.157Z,11.60
2019-05-19T02:32:35.141Z,11.54
2019-05-19T02:33:35.970Z,11.58
2019-05-19T02:34:35.119Z,11.55
2019-05-19T02:35:35.110Z,11.57
2019-05-19T02:36:35.095Z,11.57
2019-05-19T02:37:35.087Z,11.60
2019-05-19T02:38:35.071Z,11.62
2019-05-19T02:39:35.058Z,11.52
2019-05-19T02:40:35.040Z,11.58
2019-05-19T02:41:35.029Z,11.64
2019-05-19T02:42:35.020Z,11.55
2019-05-19T02:43:35.003Z,11.49
2019-05-19T02:44:34.994Z,11.62
2019-05-19T02:45:34.981Z,11.57
2019-05-19T02:46:34.965Z,11.47
2019-05-19T02:47:34.957Z,11.49
2019-05-19T02:48:34.942Z,11.37
2019-05-19T02:49:34.928Z,11.33
2019-05-19T02:50:50.815Z,11.11
2019-05-19T02:51:34.901Z,10.96
2019-05-19T02:52:34.891Z,10.85
2019-05-19T02:53:34.873Z,10.94
2019-05-19T02:54:34.867Z,10.84
2019-05-19T02:55:34.845Z,10.81
2019-05-19T02:56:34.833Z,10.85
2019-05-19T02:57:34.822Z,10.85
2019-05-19T02:58:34.806Z,10.78
2019-05-19T02:59:34.799Z,10.88
2019-05-19T03:00:34.786Z,10.82
2019-05-19T03:01:34.767Z,10.96
2019-05-19T03:02:34.828Z,11.03
2019-05-19T03:03:34.748Z,11.00
2019-05-19T03:04:34.741Z,11.03
2019-05-19T03:05:34.720Z,11.06
2019-05-19T03:06:34.714Z,11.14
2019-05-19T03:07:34.699Z,11.07
2019-05-19T03:08:34.681Z,11.00
2019-05-19T03:09:34.670Z,11.02
2019-05-19T03:10:34.657Z,11.10
2019-05-19T03:11:34.633Z,11.06
2019-05-19T03:12:34.622Z,11.07
2019-05-19T03:13:34.615Z,11.06
2019-05-19T03:14:34.610Z,11.11
2019-05-19T03:15:34.586Z,11.14
2019-05-19T03:16:34.575Z,11.14
2019-05-19T03:17:34.573Z,11.14
2019-05-19T03:18:34.546Z,11.17
2019-05-19T03:19:34.527Z,11.21
2019-05-19T03:20:34.518Z,11.24
2019-05-19T03:21:34.513Z,11.17
2019-05-19T03:22:34.497Z,11.14
2019-05-19T03:23:34.485Z,11.17
2019-05-19T03:24:34.469Z,11.15
2019-05-19T03:25:34.460Z,11.18
2019-05-19T03:26:34.443Z,11.18
2019-05-19T03:27:34.438Z,11.24
2019-05-19T03:28:34.414Z,11.21
2019-05-19T03:29:34.401Z,11.32
2019-05-19T03:30:34.392Z,11.25
2019-05-19T03:31:34.370Z,11.19
2019-05-19T03:32:34.364Z,11.17
2019-05-19T03:33:34.346Z,11.17
2019-05-19T03:34:34.334Z,11.17
2019-05-19T03:35:34.342Z,11.15
2019-05-19T03:36:34.306Z,11.11
2019-05-19T03:37:34.297Z,11.09
2019-05-19T03:38:34.281Z,11.14
2019-05-19T03:39:34.268Z,11.03
2019-05-19T03:40:34.265Z,11.11
2019-05-19T03:41:34.244Z,11.15
2019-05-19T03:42:34.234Z,11.11
2019-05-19T03:43:34.214Z,11.09
2019-05-19T03:44:34.205Z,11.06
2019-05-19T03:45:34.192Z,11.07
2019-05-19T03:46:34.178Z,11.07
2019-05-19T03:47:34.162Z,11.02
2019-05-19T03:48:34.152Z,11.06
2019-05-19T03:49:34.139Z,11.09
2019-05-19T03:50:34.126Z,10.99
2019-05-19T03:51:34.110Z,11.00
2019-05-19T03:52:34.097Z,11.02
2019-05-19T03:53:34.087Z,10.99
2019-05-19T03:54:34.069Z,10.99
2019-05-19T03:55:34.067Z,11.03
2019-05-19T03:56:34.053Z,11.00
2019-05-19T03:57:34.034Z,11.04
2019-05-19T03:58:34.010Z,10.99
2019-05-19T03:59:34.014Z,11.06
2019-05-19T04:00:33.996Z,11.06
2019-05-19T04:01:33.980Z,11.10
2019-05-19T04:02:33.966Z,11.04
2019-05-19T04:03:33.953Z,10.99
2019-05-19T04:04:33.937Z,10.99
2019-05-19T04:05:33.925Z,11.07
2019-05-19T04:06:33.916Z,11.06
2019-05-19T04:07:33.905Z,11.04
2019-05-19T04:08:33.884Z,11.02
2019-05-19T04:09:33.876Z,11.03
2019-05-19T04:10:33.880Z,11.03
2019-05-19T04:11:33.841Z,11.04
2019-05-19T04:12:33.837Z,11.04
2019-05-19T04:13:33.821Z,11.06
2019-05-19T04:14:33.810Z,11.09
2019-05-19T04:15:33.795Z,11.09
2019-05-19T04:16:33.782Z,11.03
2019-05-19T04:17:33.772Z,11.07
2019-05-19T04:18:33.763Z,11.14
2019-05-19T04:19:33.741Z,11.14
2019-05-19T04:20:33.737Z,11.10
2019-05-19T04:21:47.682Z,11.18
2019-05-19T04:22:33.700Z,11.24
2019-05-19T04:23:33.687Z,11.24
2019-05-19T04:24:33.670Z,11.22
2019-05-19T04:25:33.673Z,11.33
2019-05-19T04:26:33.646Z,11.32
2019-05-19T04:27:33.637Z,11.21
2019-05-19T04:28:33.621Z,11.28
2019-05-19T04:29:33.606Z,11.24
2019-05-19T04:30:33.596Z,11.19
2019-05-19T04:31:33.581Z,11.18
2019-05-19T04:32:33.566Z,11.24
2019-05-19T04:33:33.558Z,11.22
2019-05-19T04:34:33.544Z,11.25
2019-05-19T04:35:33.529Z,11.28
2019-05-19T04:36:33.515Z,11.29
2019-05-19T04:37:33.499Z,11.28
2019-05-19T04:38:33.486Z,11.25
2019-05-19T04:39:33.475Z,11.22
2019-05-19T04:40:33.466Z,11.27
2019-05-19T04:41:33.452Z,11.28
2019-05-19T04:42:33.439Z,11.28
2019-05-19T04:43:33.423Z,11.32
2019-05-19T04:44:33.413Z,11.28
2019-05-19T04:45:33.398Z,11.36
2019-05-19T04:46:33.402Z,11.33
2019-05-19T04:47:33.382Z,11.40
2019-05-19T04:48:33.365Z,11.37
2019-05-19T04:49:33.348Z,11.35
2019-05-19T04:50:33.331Z,11.37
2019-05-19T04:51:33.325Z,11.44
2019-05-19T04:52:33.306Z,11.36
2019-05-19T04:53:33.297Z,11.36
2019-05-19T04:54:33.277Z,11.37
2019-05-19T04:55:33.265Z,11.32
2019-05-19T04:56:33.249Z,11.37
2019-05-19T04:57:33.241Z,11.42
2019-05-19T04:58:33.225Z,11.33
2019-05-19T04:59:33.211Z,11.37
2019-05-19T05:00:33.199Z,11.24
2019-05-19T05:01:33.203Z,11.39
2019-05-19T05:02:33.172Z,11.36
2019-05-19T05:03:33.165Z,11.39
2019-05-19T05:04:33.146Z,11.35
2019-05-19T05:05:33.133Z,11.40
2019-05-19T05:06:33.123Z,11.35
2019-05-19T05:07:33.110Z,11.43
2019-05-19T05:08:33.102Z,11.40
2019-05-19T05:09:33.092Z,11.42
2019-05-19T05:10:33.070Z,11.52
2019-05-19T05:11:33.058Z,11.46
2019-05-19T05:12:33.043Z,11.55
2019-05-19T05:13:33.032Z,11.52
2019-05-19T05:14:33.011Z,11.61
2019-05-19T05:15:33.006Z,11.58
2019-05-19T05:16:32.988Z,11.57
2019-05-19T05:17:33.005Z,11.57
2019-05-19T05:18:32.963Z,11.64
2019-05-19T05:19:32.943Z,11.54
2019-05-19T05:20:32.936Z,11.60
2019-05-19T05:21:32.926Z,11.60
2019-05-19T05:22:32.914Z,11.58
2019-05-19T05:23:32.900Z,11.58
2019-05-19T05:24:32.889Z,11.61
2019-05-19T05:25:32.874Z,11.61
2019-05-19T05:26:32.866Z,11.58
2019-05-19T05:27:32.845Z,11.55
2019-05-19T05:28:32.834Z,11.60
2019-05-19T05:29:32.817Z,11.65
2019-05-19T05:30:32.800Z,11.62
2019-05-19T05:31:32.791Z,11.62
2019-05-19T05:32:32.783Z,11.64
2019-05-19T05:33:32.764Z,11.73
2019-05-19T05:34:32.775Z,11.75
2019-05-19T05:35:32.739Z,11.82
2019-05-19T05:36:32.730Z,11.85
2019-05-19T05:37:32.716Z,11.79
2019-05-19T05:38:32.704Z,11.76
2019-05-19T05:39:32.690Z,11.76
2019-05-19T05:40:32.675Z,11.64
2019-05-19T05:41:32.668Z,11.65
2019-05-19T05:42:32.646Z,11.62
2019-05-19T05:43:32.636Z,11.65
2019-05-19T05:44:32.623Z,11.62
2019-05-19T05:45:32.609Z,11.62
2019-05-19T05:46:32.597Z,11.72
2019-05-19T05:47:32.587Z,11.67
2019-05-19T05:48:32.565Z,11.76
2019-05-19T05:49:32.559Z,11.82
2019-05-19T05:50:32.548Z,11.76
2019-05-19T05:51:32.531Z,11.79
2019-05-19T05:52:38.612Z,11.85
2019-05-19T05:53:32.508Z,11.94
2019-05-19T05:54:32.492Z,11.86
2019-05-19T05:55:32.482Z,11.95
2019-05-19T05:56:32.469Z,11.91
2019-05-19T05:57:32.457Z,11.98
2019-05-19T05:58:32.439Z,11.95
2019-05-19T05:59:32.429Z,12.07
2019-05-19T06:00:32.417Z,11.98
2019-05-19T06:01:32.404Z,12.01
2019-05-19T06:02:32.398Z,12.07
2019-05-19T06:03:32.380Z,12.17
2019-05-19T06:04:32.362Z,12.14
2019-05-19T06:05:32.348Z,12.17
2019-05-19T06:06:32.334Z,12.19
2019-05-19T06:07:32.328Z,12.13
2019-05-19T06:08:32.320Z,12.20
2019-05-19T06:09:32.299Z,12.19
2019-05-19T06:10:32.288Z,12.27
2019-05-19T06:11:32.270Z,12.23
2019-05-19T06:12:32.269Z,12.28
2019-05-19T06:13:32.244Z,12.29
2019-05-19T06:14:32.234Z,12.31
2019-05-19T06:15:32.218Z,12.29
2019-05-19T06:16:32.207Z,12.34
2019-05-19T06:17:32.195Z,12.46
2019-05-19T06:18:32.189Z,12.41
2019-05-19T06:19:32.168Z,12.46
2019-05-19T06:20:32.156Z,12.56
2019-05-19T06:21:32.142Z,12.52
2019-05-19T06:22:32.139Z,12.52
2019-05-19T06:23:32.113Z,12.53
2019-05-19T06:24:32.105Z,12.70
2019-05-19T06:25:32.328Z,12.65
2019-05-19T06:26:32.081Z,12.77
2019-05-19T06:27:32.062Z,12.79
2019-05-19T06:28:32.053Z,12.79
2019-05-19T06:29:32.043Z,12.74
2019-05-19T06:30:32.026Z,12.77
2019-05-19T06:31:32.013Z,12.82
2019-05-19T06:32:32.018Z,12.79
2019-05-19T06:33:31.998Z,12.74
2019-05-19T06:34:31.990Z,12.67
2019-05-19T06:35:31.968Z,12.71
2019-05-19T06:36:31.967Z,12.75
2019-05-19T06:37:31.938Z,12.60
2019-05-19T06:38:31.932Z,12.75
2019-05-19T06:39:31.912Z,12.77
2019-05-19T06:40:31.901Z,12.82
2019-05-19T06:41:31.881Z,12.83
2019-05-19T06:42:31.869Z,12.83
2019-05-19T06:43:31.863Z,12.82
2019-05-19T06:44:31.846Z,12.87
2019-05-19T06:45:31.876Z,12.86
2019-05-19T06:46:31.822Z,12.95
2019-05-19T06:47:31.807Z,12.92
2019-05-19T06:48:31.813Z,12.90
2019-05-19T06:49:31.783Z,12.95
2019-05-19T06:50:31.778Z,12.87
2019-05-19T06:51:31.762Z,12.89
2019-05-19T06:52:31.749Z,12.86
2019-05-19T06:53:31.738Z,13.04
2019-05-19T06:54:31.719Z,13.08
2019-05-19T06:55:31.749Z,13.19
2019-05-19T06:56:31.695Z,13.20
2019-05-19T06:57:31.683Z,13.11
2019-05-19T06:58:31.671Z,13.29
2019-05-19T06:59:31.656Z,13.28
2019-05-19T07:00:31.647Z,13.38
2019-05-19T07:01:31.636Z,13.51
2019-05-19T07:02:31.619Z,13.51
2019-05-19T07:03:31.617Z,13.69
2019-05-19T07:04:31.601Z,13.63
2019-05-19T07:05:31.601Z,13.75
2019-05-19T07:06:34.090Z,13.78
2019-05-19T07:07:31.557Z,13.71
2019-05-19T07:08:31.546Z,13.84
2019-05-19T07:09:31.565Z,13.79
2019-05-19T07:10:31.526Z,13.78
2019-05-19T07:11:31.514Z,13.89
2019-05-19T07:12:31.499Z,13.96
2019-05-19T07:13:31.481Z,13.95
2019-05-19T07:14:31.474Z,14.04
2019-05-19T07:15:31.456Z,13.99
2019-05-19T07:16:31.447Z,14.03
2019-05-19T07:17:31.438Z,14.03
2019-05-19T07:18:31.432Z,14.04
2019-05-19T07:19:31.420Z,14.10
2019-05-19T07:20:31.404Z,14.07
2019-05-19T07:21:31.391Z,14.00
2019-05-19T07:22:31.377Z,13.96
2019-05-19T07:23:31.370Z,13.87
2019-05-19T07:24:31.357Z,13.75
2019-05-19T07:25:31.339Z,13.64
2019-05-19T07:26:31.322Z,13.75
2019-05-19T07:27:31.315Z,13.79
2019-05-19T07:28:31.301Z,13.84
2019-05-19T07:29:31.293Z,13.84
2019-05-19T07:30:31.279Z,13.96
2019-05-19T07:31:31.266Z,13.89
2019-05-19T07:32:31.261Z,13.91
2019-05-19T07:33:31.244Z,14.00
2019-05-19T07:34:31.234Z,14.02
2019-05-19T07:35:31.220Z,14.04
2019-05-19T07:36:31.220Z,14.03
2019-05-19T07:37:31.191Z,14.14
2019-05-19T07:38:31.182Z,14.02
2019-05-19T07:39:31.175Z,14.09
2019-05-19T07:40:31.162Z,14.07
2019-05-19T07:41:31.145Z,14.17
2019-05-19T07:42:31.135Z,14.03
2019-05-19T07:43:31.124Z,14.07
2019-05-19T07:44:31.110Z,14.09
2019-05-19T07:45:31.101Z,14.10
2019-05-19T07:46:31.093Z,14.07
2019-05-19T07:47:31.079Z,14.04
2019-05-19T07:48:31.059Z,13.87
2019-05-19T07:49:31.053Z,13.91
2019-05-19T07:50:31.055Z,14.00
2019-05-19T07:51:31.026Z,13.96
2019-05-19T07:52:31.043Z,13.85
2019-05-19T07:53:42.207Z,13.91
2019-05-19T07:54:30.988Z,13.88
2019-05-19T07:55:30.979Z,13.88
2019-05-19T07:56:30.964Z,13.95
2019-05-19T07:57:30.963Z,14.04
2019-05-19T07:58:30.944Z,13.89
2019-05-19T07:59:30.928Z,13.95
2019-05-19T08:00:31.011Z,13.92
2019-05-19T08:01:30.907Z,13.95
2019-05-19T08:02:30.899Z,13.89
2019-05-19T08:03:30.883Z,13.95
2019-05-19T08:04:30.921Z,13.97
2019-05-19T08:05:30.861Z,14.03
2019-05-19T08:06:30.850Z,13.91
2019-05-19T08:07:30.834Z,14.02
2019-05-19T08:08:30.835Z,14.06
2019-05-19T08:09:30.814Z,13.99
2019-05-19T08:10:30.802Z,14.03
2019-05-19T08:11:30.785Z,14.00
2019-05-19T08:12:30.775Z,14.06
2019-05-19T08:13:30.765Z,14.03
2019-05-19T08:14:30.752Z,13.97
2019-05-19T08:15:30.746Z,14.03
2019-05-19T08:16:30.731Z,14.02
2019-05-19T08:17:30.712Z,14.07
2019-05-19T08:18:30.706Z,14.09
2019-05-19T08:19:30.710Z,14.03
2019-05-19T08:20:30.673Z,14.09
2019-05-19T08:21:30.664Z,14.15
2019-05-19T08:22:30.655Z,14.20
2019-05-19T08:23:30.642Z,14.20
2019-05-19T08:24:30.630Z,14.21
2019-05-19T08:25:30.621Z,14.20
2019-05-19T08:26:30.605Z,14.24
2019-05-19T08:27:30.591Z,14.24
2019-05-19T08:28:30.580Z,14.29
2019-05-19T08:29:30.567Z,14.28
2019-05-19T08:30:30.643Z,14.27
2019-05-19T08:31:30.583Z,14.29
2019-05-19T08:32:30.530Z,14.37
2019-05-19T08:33:30.535Z,14.37
2019-05-19T08:34:30.509Z,14.52
2019-05-19T08:35:30.496Z,14.61
2019-05-19T08:36:30.487Z,14.73
2019-05-19T08:37:30.469Z,14.84
2019-05-19T08:38:30.463Z,14.88
2019-05-19T08:39:30.459Z,14.99
2019-05-19T08:40:30.469Z,15.02
2019-05-19T08:41:30.435Z,14.99
2019-05-19T08:42:30.412Z,15.03
2019-05-19T08:43:30.403Z,15.14
2019-05-19T08:44:30.399Z,15.03
2019-05-19T08:45:30.377Z,15.09
2019-05-19T08:46:30.420Z,15.07
2019-05-19T08:47:30.366Z,15.01
2019-05-19T08:48:30.342Z,15.03
2019-05-19T08:49:30.337Z,15.14
2019-05-19T08:50:30.322Z,15.13
2019-05-19T08:51:30.309Z,15.21
2019-05-19T08:52:30.301Z,15.13
2019-05-19T08:53:30.319Z,15.14
2019-05-19T08:54:30.273Z,15.02
2019-05-19T08:55:30.259Z,15.10
2019-05-19T08:56:30.253Z,15.13
2019-05-19T08:57:30.241Z,15.07
2019-05-19T08:58:30.230Z,15.14
2019-05-19T08:59:30.214Z,15.20
2019-05-19T09:00:30.204Z,15.25
2019-05-19T09:01:30.194Z,15.29
2019-05-19T09:02:30.181Z,15.34
2019-05-19T09:03:30.168Z,15.35
2019-05-19T09:04:30.159Z,15.36
2019-05-19T09:05:30.147Z,15.32
2019-05-19T09:06:30.140Z,15.23
2019-05-19T09:07:30.125Z,15.20
2019-05-19T09:08:30.112Z,15.17
2019-05-19T09:09:30.102Z,15.10
2019-05-19T09:10:30.085Z,15.09
2019-05-19T09:11:30.076Z,15.11
2019-05-19T09:12:30.067Z,15.03
2019-05-19T09:13:30.058Z,15.06
2019-05-19T09:14:30.045Z,15.09
2019-05-19T09:15:30.082Z,15.14
2019-05-19T09:16:30.018Z,15.16
2019-05-19T09:17:30.007Z,15.16
2019-05-19T09:18:30.001Z,15.13
2019-05-19T09:19:29.987Z,15.16
2019-05-19T09:20:29.974Z,15.19
2019-05-19T09:21:29.989Z,15.07
2019-05-19T09:22:29.950Z,15.09
2019-05-19T09:23:29.941Z,15.10
2019-05-19T09:24:31.107Z,15.01
2019-05-19T09:25:29.918Z,15.16
2019-05-19T09:26:29.905Z,15.20
2019-05-19T09:27:29.892Z,15.34
2019-05-19T09:28:29.883Z,15.34
2019-05-19T09:29:29.929Z,15.27
2019-05-19T09:30:29.862Z,15.31
2019-05-19T09:31:29.857Z,15.27
2019-05-19T09:32:29.844Z,15.31
2019-05-19T09:33:29.826Z,15.32
2019-05-19T09:34:29.809Z,15.19
2019-05-19T09:35:29.799Z,15.14
2019-05-19T09:36:29.786Z,15.14
2019-05-19T09:37:29.785Z,15.19
2019-05-19T09:38:29.774Z,15.11
2019-05-19T09:39:29.758Z,15.11
2019-05-19T09:40:29.777Z,15.17
2019-05-19T09:41:29.735Z,15.16
2019-05-19T09:42:29.725Z,15.16
2019-05-19T09:43:29.712Z,15.13
2019-05-19T09:44:29.701Z,15.16
2019-05-19T09:45:29.681Z,15.14
2019-05-19T09:46:29.679Z,15.21
2019-05-19T09:47:29.666Z,15.21
2019-05-19T09:48:29.658Z,15.11
2019-05-19T09:49:29.647Z,15.19
2019-05-19T09:50:29.633Z,15.25
2019-05-19T09:51:29.619Z,15.20
2019-05-19T09:52:29.603Z,15.20
2019-05-19T09:53:29.601Z,15.09
2019-05-19T09:54:42.719Z,15.11
2019-05-19T09:55:29.574Z,15.19
2019-05-19T09:56:29.571Z,15.01
2019-05-19T09:57:29.570Z,15.17
2019-05-19T09:58:29.536Z,15.13
2019-05-19T09:59:29.524Z,15.16
2019-05-19T10:00:29.525Z,15.11
2019-05-19T10:01:29.507Z,15.11
2019-05-19T10:02:29.494Z,15.02
2019-05-19T10:03:29.488Z,15.07
2019-05-19T10:04:29.469Z,15.03
2019-05-19T10:05:29.459Z,15.13
2019-05-19T10:06:29.447Z,14.98
2019-05-19T10:07:29.435Z,14.99
2019-05-19T10:08:29.422Z,14.99
2019-05-19T10:09:29.414Z,15.02
2019-05-19T10:10:29.404Z,14.92
2019-05-19T10:11:29.394Z,14.91
2019-05-19T10:12:29.383Z,14.91
2019-05-19T10:13:29.368Z,14.98
2019-05-19T10:14:29.356Z,14.91
2019-05-19T10:15:29.383Z,14.94
2019-05-19T10:16:29.337Z,15.01
2019-05-19T10:17:29.327Z,15.02
2019-05-19T10:18:29.309Z,14.96
2019-05-19T10:19:29.298Z,15.01
2019-05-19T10:20:29.298Z,14.99
2019-05-19T10:21:29.271Z,15.02
2019-05-19T10:22:29.267Z,15.09
2019-05-19T10:23:29.251Z,15.21
2019-05-19T10:24:29.236Z,15.17
2019-05-19T10:25:29.228Z,15.23
2019-05-19T10:26:29.215Z,15.35
2019-05-19T10:27:29.214Z,15.41
2019-05-19T10:28:29.198Z,15.43
2019-05-19T10:29:29.186Z,15.53
2019-05-19T10:30:29.166Z,15.57
2019-05-19T10:31:29.159Z,15.64
2019-05-19T10:32:29.153Z,15.65
2019-05-19T10:33:29.135Z,15.60
2019-05-19T10:34:29.125Z,15.68
2019-05-19T10:35:29.109Z,15.69
2019-05-19T10:36:29.100Z,15.72
2019-05-19T10:37:29.088Z,15.68
2019-05-19T10:38:29.080Z,15.71
2019-05-19T10:39:29.066Z,15.71
2019-05-19T10:40:29.061Z,15.71
2019-05-19T10:41:29.043Z,15.74
2019-05-19T10:42:29.033Z,15.74
2019-05-19T10:43:29.024Z,15.75
2019-05-19T10:44:29.013Z,15.80
2019-05-19T10:45:29.006Z,15.76
2019-05-19T10:46:29.007Z,15.82
2019-05-19T10:47:28.979Z,15.86
2019-05-19T10:48:28.968Z,15.89
2019-05-19T10:49:28.954Z,15.97
2019-05-19T10:50:28.942Z,16.00
2019-05-19T10:51:28.932Z,16.02
2019-05-19T10:52:28.917Z,16.09
2019-05-19T10:53:28.913Z,16.14
2019-05-19T10:54:28.897Z,16.11
2019-05-19T10:55:36.712Z,16.05
2019-05-19T10:56:28.881Z,16.05
2019-05-19T10:57:28.869Z,16.11
2019-05-19T10:58:28.861Z,16.04
2019-05-19T10:59:28.847Z,16.20
2019-05-19T11:00:28.835Z,16.09
2019-05-19T11:01:28.823Z,16.07
2019-05-19T11:02:28.816Z,16.05
2019-05-19T11:03:28.802Z,16.01
2019-05-19T11:04:28.797Z,15.87
2019-05-19T11:05:28.778Z,15.86
2019-05-19T11:06:28.767Z,15.83
2019-05-19T11:07:28.762Z,15.76
2019-05-19T11:08:28.742Z,15.76
2019-05-19T11:09:28.732Z,15.76
2019-05-19T11:10:28.724Z,15.86
2019-05-19T11:11:28.708Z,15.86
2019-05-19T11:12:28.700Z,15.90
2019-05-19T11:13:28.695Z,15.90
2019-05-19T11:14:28.677Z,16.04
2019-05-19T11:15:28.673Z,16.07
2019-05-19T11:16:28.665Z,16.21
2019-05-19T11:17:28.648Z,16.24
2019-05-19T11:18:28.677Z,16.41
2019-05-19T11:19:28.620Z,16.41
2019-05-19T11:20:28.613Z,16.68
2019-05-19T11:21:28.607Z,16.76
2019-05-19T11:22:28.591Z,16.85
2019-05-19T11:23:28.582Z,17.04
2019-05-19T11:24:28.571Z,17.08
2019-05-19T11:25:34.004Z,17.11
2019-05-19T11:26:28.545Z,17.16
2019-05-19T11:27:28.537Z,17.28
2019-05-19T11:28:28.532Z,17.08
2019-05-19T11:29:28.516Z,17.14
2019-05-19T11:30:28.505Z,17.14
2019-05-19T11:31:28.496Z,17.04
2019-05-19T11:32:28.487Z,17.01
2019-05-19T11:33:28.474Z,16.91
2019-05-19T11:34:28.462Z,17.00
2019-05-19T11:35:28.450Z,16.97
2019-05-19T11:36:28.444Z,16.83
2019-05-19T11:37:28.429Z,16.91
2019-05-19T11:38:28.421Z,16.89
2019-05-19T11:39:28.411Z,16.85
2019-05-19T11:40:28.404Z,16.96
2019-05-19T11:41:28.389Z,16.93
2019-05-19T11:42:28.397Z,16.85
2019-05-19T11:43:28.367Z,16.85
2019-05-19T11:44:28.362Z,16.96
2019-05-19T11:45:28.350Z,16.93
2019-05-19T11:46:28.338Z,16.94
2019-05-19T11:47:28.328Z,16.86
2019-05-19T11:48:28.322Z,16.86
2019-05-19T11:49:28.310Z,16.91
2019-05-19T11:50:28.288Z,16.88
2019-05-19T11:51:28.288Z,16.88
2019-05-19T11:52:28.269Z,16.88
2019-05-19T11:53:28.261Z,16.85
2019-05-19T11:54:28.259Z,16.86
2019-05-19T11:55:28.247Z,16.85
2019-05-19T11:56:28.233Z,16.83
2019-05-19T11:57:28.223Z,16.96
2019-05-19T11:58:28.209Z,16.89
2019-05-19T11:59:28.204Z,17.00
2019-05-19T12:00:28.188Z,17.06
2019-05-19T12:01:28.179Z,17.03
2019-05-19T12:02:28.171Z,17.07
2019-05-19T12:03:28.156Z,17.18
2019-05-19T12:04:28.150Z,17.21
2019-05-19T12:05:28.145Z,17.34
2019-05-19T12:06:38.696Z,17.30
2019-05-19T12:07:28.118Z,17.25
2019-05-19T12:08:28.111Z,17.25
2019-05-19T12:09:28.096Z,17.26
2019-05-19T12:10:28.087Z,17.22
2019-05-19T12:11:28.078Z,17.37
2019-05-19T12:12:28.068Z,17.30
2019-05-19T12:13:28.062Z,17.44
2019-05-19T12:14:28.048Z,17.48
2019-05-19T12:15:28.035Z,17.28
2019-05-19T12:16:28.020Z,17.21
2019-05-19T12:17:28.008Z,17.25
2019-05-19T12:18:28.004Z,17.11
2019-05-19T12:19:28.039Z,17.01
2019-05-19T12:20:27.992Z,17.04
2019-05-19T12:21:27.976Z,17.08
2019-05-19T12:22:28.013Z,16.93
2019-05-19T12:23:27.955Z,16.98
2019-05-19T12:24:27.939Z,16.98
2019-05-19T12:25:27.929Z,16.93
2019-05-19T12:26:27.924Z,16.89
2019-05-19T12:27:27.912Z,16.71
2019-05-19T12:28:27.905Z,16.66
2019-05-19T12:29:27.890Z,16.66
2019-05-19T12:30:27.904Z,16.66
2019-05-19T12:31:27.874Z,16.57
2019-05-19T12:32:27.861Z,16.49
2019-05-19T12:33:27.859Z,16.43
2019-05-19T12:34:27.838Z,16.34
2019-05-19T12:35:27.832Z,16.27
2019-05-19T12:36:27.825Z,16.31
2019-05-19T12:37:27.813Z,16.25
2019-05-19T12:38:27.804Z,16.20
2019-05-19T12:39:27.835Z,16.20
2019-05-19T12:40:27.775Z,16.27
2019-05-19T12:41:27.766Z,16.17
2019-05-19T12:42:27.758Z,16.23
2019-05-19T12:43:27.746Z,16.24
2019-05-19T12:44:27.728Z,16.28
2019-05-19T12:45:27.724Z,16.25
2019-05-19T12:46:27.721Z,16.31
2019-05-19T12:47:27.707Z,16.35
2019-05-19T12:48:27.693Z,16.38
2019-05-19T12:49:27.681Z,16.41
2019-05-19T12:50:27.669Z,16.56
2019-05-19T12:51:27.662Z,16.50
2019-05-19T12:52:27.651Z,16.52